sensor_id;sensor_type;location;lat;lon;timestamp;P1;durP1;ratioP1;P2;durP2;ratioP2
19167;SDS011;9716;53.114;18.040;2023-12-20T00:00:30;7.90;;;3.70;;
19167;SDS011;9716;53.114;18.040;2023-12-20T00:03:20;6.10;;;3.57;;
19167;SDS011;9716;53.114;18.040;2023-12-20T00:05:48;5.17;;;3.17;;
19167;SDS011;9716;53.114;18.040;2023-12-20T00:08:17;5.17;;;3.07;;
19167;SDS011;9716;53.114;18.040;2023-12-20T00:10:45;4.43;;;2.80;;
19167;SDS011;9716;53.114;18.040;2023-12-20T00:13:13;5.80;;;3.20;;
19167;SDS011;9716;53.114;18.040;2023-12-20T00:15:42;5.13;;;3.20;;
19167;SDS011;9716;53.114;18.040;2023-12-20T00:18:10;4.70;;;2.93;;
19167;SDS011;9716;53.114;18.040;2023-12-20T00:20:42;7.40;;;3.67;;
19167;SDS011;9716;53.114;18.040;2023-12-20T00:23:11;6.03;;;3.37;;
19167;SDS011;9716;53.114;18.040;2023-12-20T00:25:39;7.30;;;3.27;;
19167;SDS011;9716;53.114;18.040;2023-12-20T00:28:08;6.10;;;3.27;;
19167;SDS011;9716;53.114;18.040;2023-12-20T00:30:36;6.90;;;3.70;;
19167;SDS011;9716;53.114;18.040;2023-12-20T00:33:05;7.27;;;2.90;;
19167;SDS011;9716;53.114;18.040;2023-12-20T00:35:33;5.03;;;2.90;;
19167;SDS011;9716;53.114;18.040;2023-12-20T00:38:03;6.33;;;2.97;;
19167;SDS011;9716;53.114;18.040;2023-12-20T00:40:31;5.50;;;3.13;;
19167;SDS011;9716;53.114;18.040;2023-12-20T00:43:01;4.83;;;2.77;;
19167;SDS011;9716;53.114;18.040;2023-12-20T00:45:29;6.27;;;3.00;;
19167;SDS011;9716;53.114;18.040;2023-12-20T00:47:57;4.50;;;2.87;;
19167;SDS011;9716;53.114;18.040;2023-12-20T00:50:27;6.43;;;2.93;;
19167;SDS011;9716;53.114;18.040;2023-12-20T00:52:56;7.20;;;2.80;;
19167;SDS011;9716;53.114;18.040;2023-12-20T00:55:26;3.67;;;2.57;;
19167;SDS011;9716;53.114;18.040;2023-12-20T00:57:54;12.67;;;4.47;;
19167;SDS011;9716;53.114;18.040;2023-12-20T01:00:23;8.67;;;3.53;;
19167;SDS011;9716;53.114;18.040;2023-12-20T01:02:51;4.50;;;3.20;;
19167;SDS011;9716;53.114;18.040;2023-12-20T01:05:20;7.87;;;3.43;;
19167;SDS011;9716;53.114;18.040;2023-12-20T01:07:50;4.07;;;2.90;;
19167;SDS011;9716;53.114;18.040;2023-12-20T01:10:18;4.00;;;2.73;;
19167;SDS011;9716;53.114;18.040;2023-12-20T01:12:48;4.97;;;2.70;;
19167;SDS011;9716;53.114;18.040;2023-12-20T01:15:16;5.27;;;3.10;;
19167;SDS011;9716;53.114;18.040;2023-12-20T01:17:45;5.47;;;3.03;;
19167;SDS011;9716;53.114;18.040;2023-12-20T01:20:14;4.90;;;2.80;;
19167;SDS011;9716;53.114;18.040;2023-12-20T01:22:43;5.60;;;2.80;;
19167;SDS011;9716;53.114;18.040;2023-12-20T01:25:12;4.90;;;2.83;;
19167;SDS011;9716;53.114;18.040;2023-12-20T01:27:41;5.03;;;3.00;;
19167;SDS011;9716;53.114;18.040;2023-12-20T01:30:12;6.23;;;3.07;;
19167;SDS011;9716;53.114;18.040;2023-12-20T01:32:40;5.17;;;3.23;;
19167;SDS011;9716;53.114;18.040;2023-12-20T01:35:09;4.73;;;2.77;;
19167;SDS011;9716;53.114;18.040;2023-12-20T01:37:41;5.63;;;3.23;;
19167;SDS011;9716;53.114;18.040;2023-12-20T01:40:10;5.80;;;3.20;;
19167;SDS011;9716;53.114;18.040;2023-12-20T01:42:39;5.50;;;2.73;;
19167;SDS011;9716;53.114;18.040;2023-12-20T01:45:09;7.80;;;2.93;;
19167;SDS011;9716;53.114;18.040;2023-12-20T01:47:39;5.10;;;3.10;;
19167;SDS011;9716;53.114;18.040;2023-12-20T01:50:08;6.70;;;3.43;;
19167;SDS011;9716;53.114;18.040;2023-12-20T01:52:36;3.97;;;2.73;;
19167;SDS011;9716;53.114;18.040;2023-12-20T01:55:05;4.87;;;3.17;;
19167;SDS011;9716;53.114;18.040;2023-12-20T01:57:40;6.10;;;3.00;;
19167;SDS011;9716;53.114;18.040;2023-12-20T02:00:10;6.30;;;3.30;;
19167;SDS011;9716;53.114;18.040;2023-12-20T02:02:42;9.53;;;3.20;;
19167;SDS011;9716;53.114;18.040;2023-12-20T02:05:12;6.33;;;3.13;;
19167;SDS011;9716;53.114;18.040;2023-12-20T02:07:41;7.90;;;3.30;;
19167;SDS011;9716;53.114;18.040;2023-12-20T02:10:10;8.13;;;3.27;;
19167;SDS011;9716;53.114;18.040;2023-12-20T02:12:39;5.70;;;3.10;;
19167;SDS011;9716;53.114;18.040;2023-12-20T02:15:08;6.93;;;3.37;;
19167;SDS011;9716;53.114;18.040;2023-12-20T02:17:44;6.30;;;3.23;;
19167;SDS011;9716;53.114;18.040;2023-12-20T02:20:15;10.00;;;3.27;;
19167;SDS011;9716;53.114;18.040;2023-12-20T02:22:44;8.87;;;3.47;;
19167;SDS011;9716;53.114;18.040;2023-12-20T02:25:13;7.80;;;3.13;;
19167;SDS011;9716;53.114;18.040;2023-12-20T02:27:41;4.90;;;3.23;;
19167;SDS011;9716;53.114;18.040;2023-12-20T02:30:11;4.80;;;2.60;;
19167;SDS011;9716;53.114;18.040;2023-12-20T02:32:39;5.10;;;3.07;;
19167;SDS011;9716;53.114;18.040;2023-12-20T02:35:07;6.90;;;3.10;;
19167;SDS011;9716;53.114;18.040;2023-12-20T02:37:36;6.27;;;3.50;;
19167;SDS011;9716;53.114;18.040;2023-12-20T02:40:09;4.23;;;2.50;;
19167;SDS011;9716;53.114;18.040;2023-12-20T02:42:38;7.03;;;3.03;;
19167;SDS011;9716;53.114;18.040;2023-12-20T02:45:07;4.60;;;2.80;;
19167;SDS011;9716;53.114;18.040;2023-12-20T02:47:35;4.53;;;2.90;;
19167;SDS011;9716;53.114;18.040;2023-12-20T02:50:04;5.13;;;3.20;;
19167;SDS011;9716;53.114;18.040;2023-12-20T02:52:33;4.60;;;2.90;;
19167;SDS011;9716;53.114;18.040;2023-12-20T02:55:09;5.37;;;3.00;;
19167;SDS011;9716;53.114;18.040;2023-12-20T02:57:37;3.53;;;2.43;;
19167;SDS011;9716;53.114;18.040;2023-12-20T03:00:09;6.83;;;3.30;;
19167;SDS011;9716;53.114;18.040;2023-12-20T03:05:30;4.70;;;3.03;;
19167;SDS011;9716;53.114;18.040;2023-12-20T03:07:59;5.67;;;3.03;;
19167;SDS011;9716;53.114;18.040;2023-12-20T03:10:29;5.20;;;3.40;;
19167;SDS011;9716;53.114;18.040;2023-12-20T03:12:57;5.00;;;2.80;;
19167;SDS011;9716;53.114;18.040;2023-12-20T03:15:26;4.30;;;2.73;;
19167;SDS011;9716;53.114;18.040;2023-12-20T03:17:54;4.67;;;2.70;;
19167;SDS011;9716;53.114;18.040;2023-12-20T03:20:23;4.90;;;2.83;;
19167;SDS011;9716;53.114;18.040;2023-12-20T03:22:52;4.47;;;3.30;;
19167;SDS011;9716;53.114;18.040;2023-12-20T03:25:21;4.57;;;2.90;;
19167;SDS011;9716;53.114;18.040;2023-12-20T03:27:50;5.50;;;2.90;;
19167;SDS011;9716;53.114;18.040;2023-12-20T03:30:19;3.63;;;2.37;;
19167;SDS011;9716;53.114;18.040;2023-12-20T03:32:48;5.73;;;2.93;;
19167;SDS011;9716;53.114;18.040;2023-12-20T03:35:16;4.30;;;2.77;;
19167;SDS011;9716;53.114;18.040;2023-12-20T03:37:44;4.63;;;2.70;;
19167;SDS011;9716;53.114;18.040;2023-12-20T03:40:13;3.23;;;2.40;;
19167;SDS011;9716;53.114;18.040;2023-12-20T03:42:44;5.00;;;3.17;;
19167;SDS011;9716;53.114;18.040;2023-12-20T03:45:14;3.70;;;2.17;;
19167;SDS011;9716;53.114;18.040;2023-12-20T03:47:43;4.67;;;3.07;;
19167;SDS011;9716;53.114;18.040;2023-12-20T03:50:12;4.60;;;2.73;;
19167;SDS011;9716;53.114;18.040;2023-12-20T03:52:40;4.80;;;2.60;;
19167;SDS011;9716;53.114;18.040;2023-12-20T03:55:09;4.73;;;2.90;;
19167;SDS011;9716;53.114;18.040;2023-12-20T03:57:37;3.60;;;2.43;;
19167;SDS011;9716;53.114;18.040;2023-12-20T04:00:07;3.40;;;2.73;;
19167;SDS011;9716;53.114;18.040;2023-12-20T04:02:38;5.10;;;2.80;;
19167;SDS011;9716;53.114;18.040;2023-12-20T04:05:08;3.53;;;2.43;;
19167;SDS011;9716;53.114;18.040;2023-12-20T04:07:37;3.40;;;2.57;;
19167;SDS011;9716;53.114;18.040;2023-12-20T04:10:07;3.50;;;2.27;;
19167;SDS011;9716;53.114;18.040;2023-12-20T04:12:36;5.70;;;2.67;;
19167;SDS011;9716;53.114;18.040;2023-12-20T04:15:04;4.53;;;2.57;;
19167;SDS011;9716;53.114;18.040;2023-12-20T04:17:36;4.03;;;2.50;;
19167;SDS011;9716;53.114;18.040;2023-12-20T04:20:06;3.63;;;2.10;;
19167;SDS011;9716;53.114;18.040;2023-12-20T04:22:36;4.47;;;2.60;;
19167;SDS011;9716;53.114;18.040;2023-12-20T04:25:04;3.27;;;2.23;;
19167;SDS011;9716;53.114;18.040;2023-12-20T04:27:33;3.13;;;2.30;;
19167;SDS011;9716;53.114;18.040;2023-12-20T04:30:01;3.33;;;2.07;;
19167;SDS011;9716;53.114;18.040;2023-12-20T04:32:30;3.40;;;2.27;;
19167;SDS011;9716;53.114;18.040;2023-12-20T04:35:00;4.43;;;2.60;;
19167;SDS011;9716;53.114;18.040;2023-12-20T04:37:29;3.10;;;1.90;;
19167;SDS011;9716;53.114;18.040;2023-12-20T04:39:57;4.27;;;2.07;;
19167;SDS011;9716;53.114;18.040;2023-12-20T04:42:26;2.63;;;1.80;;
19167;SDS011;9716;53.114;18.040;2023-12-20T04:44:54;2.63;;;1.80;;
19167;SDS011;9716;53.114;18.040;2023-12-20T04:47:23;2.67;;;2.20;;
19167;SDS011;9716;53.114;18.040;2023-12-20T04:49:51;3.03;;;2.30;;
19167;SDS011;9716;53.114;18.040;2023-12-20T04:52:21;2.90;;;1.90;;
19167;SDS011;9716;53.114;18.040;2023-12-20T04:54:53;2.97;;;1.87;;
19167;SDS011;9716;53.114;18.040;2023-12-20T04:57:31;2.83;;;1.90;;
19167;SDS011;9716;53.114;18.040;2023-12-20T04:59:59;2.97;;;1.63;;
19167;SDS011;9716;53.114;18.040;2023-12-20T05:02:30;2.90;;;2.10;;
19167;SDS011;9716;53.114;18.040;2023-12-20T05:04:58;3.00;;;1.70;;
19167;SDS011;9716;53.114;18.040;2023-12-20T05:07:28;1.87;;;1.30;;
19167;SDS011;9716;53.114;18.040;2023-12-20T05:09:57;2.67;;;1.40;;
19167;SDS011;9716;53.114;18.040;2023-12-20T05:12:26;2.00;;;1.40;;
19167;SDS011;9716;53.114;18.040;2023-12-20T05:14:54;2.43;;;1.27;;
19167;SDS011;9716;53.114;18.040;2023-12-20T05:17:26;2.83;;;1.23;;
19167;SDS011;9716;53.114;18.040;2023-12-20T05:19:54;1.70;;;1.47;;
19167;SDS011;9716;53.114;18.040;2023-12-20T05:22:23;3.57;;;1.50;;
19167;SDS011;9716;53.114;18.040;2023-12-20T05:24:53;1.53;;;1.40;;
19167;SDS011;9716;53.114;18.040;2023-12-20T05:27:21;1.97;;;1.53;;
19167;SDS011;9716;53.114;18.040;2023-12-20T05:29:50;2.27;;;1.27;;
19167;SDS011;9716;53.114;18.040;2023-12-20T05:32:18;1.27;;;0.90;;
19167;SDS011;9716;53.114;18.040;2023-12-20T05:34:46;2.00;;;1.00;;
19167;SDS011;9716;53.114;18.040;2023-12-20T05:37:15;1.63;;;1.17;;
19167;SDS011;9716;53.114;18.040;2023-12-20T05:39:43;3.23;;;1.10;;
19167;SDS011;9716;53.114;18.040;2023-12-20T05:42:14;1.37;;;0.97;;
19167;SDS011;9716;53.114;18.040;2023-12-20T05:44:42;2.47;;;1.30;;
19167;SDS011;9716;53.114;18.040;2023-12-20T05:47:11;2.03;;;1.30;;
19167;SDS011;9716;53.114;18.040;2023-12-20T05:49:39;2.70;;;1.23;;
19167;SDS011;9716;53.114;18.040;2023-12-20T05:52:08;2.00;;;1.13;;
19167;SDS011;9716;53.114;18.040;2023-12-20T05:54:36;1.57;;;1.37;;
19167;SDS011;9716;53.114;18.040;2023-12-20T05:57:05;1.60;;;1.10;;
19167;SDS011;9716;53.114;18.040;2023-12-20T05:59:34;1.57;;;1.17;;
19167;SDS011;9716;53.114;18.040;2023-12-20T06:02:03;1.43;;;1.30;;
19167;SDS011;9716;53.114;18.040;2023-12-20T06:04:32;3.17;;;1.00;;
19167;SDS011;9716;53.114;18.040;2023-12-20T06:07:01;1.63;;;1.50;;
19167;SDS011;9716;53.114;18.040;2023-12-20T06:09:30;1.70;;;1.30;;
19167;SDS011;9716;53.114;18.040;2023-12-20T06:11:58;2.00;;;1.30;;
19167;SDS011;9716;53.114;18.040;2023-12-20T06:14:27;1.40;;;1.13;;
19167;SDS011;9716;53.114;18.040;2023-12-20T06:16:58;2.10;;;1.40;;
19167;SDS011;9716;53.114;18.040;2023-12-20T06:19:27;1.67;;;1.20;;
19167;SDS011;9716;53.114;18.040;2023-12-20T06:21:56;1.70;;;1.47;;
19167;SDS011;9716;53.114;18.040;2023-12-20T06:24:24;4.50;;;1.67;;
19167;SDS011;9716;53.114;18.040;2023-12-20T06:26:55;2.33;;;1.63;;
19167;SDS011;9716;53.114;18.040;2023-12-20T06:29:23;1.63;;;1.30;;
19167;SDS011;9716;53.114;18.040;2023-12-20T06:31:51;2.93;;;1.90;;
19167;SDS011;9716;53.114;18.040;2023-12-20T06:34:22;2.30;;;1.40;;
19167;SDS011;9716;53.114;18.040;2023-12-20T06:36:50;6.23;;;1.80;;
19167;SDS011;9716;53.114;18.040;2023-12-20T06:39:19;2.70;;;1.70;;
19167;SDS011;9716;53.114;18.040;2023-12-20T06:41:47;3.40;;;1.70;;
19167;SDS011;9716;53.114;18.040;2023-12-20T06:44:16;4.63;;;2.27;;
19167;SDS011;9716;53.114;18.040;2023-12-20T06:46:44;3.87;;;1.83;;
19167;SDS011;9716;53.114;18.040;2023-12-20T06:49:13;2.70;;;1.97;;
19167;SDS011;9716;53.114;18.040;2023-12-20T06:51:42;3.80;;;2.00;;
19167;SDS011;9716;53.114;18.040;2023-12-20T06:54:11;6.30;;;2.00;;
19167;SDS011;9716;53.114;18.040;2023-12-20T06:56:39;3.60;;;2.00;;
19167;SDS011;9716;53.114;18.040;2023-12-20T06:59:08;4.43;;;2.13;;
19167;SDS011;9716;53.114;18.040;2023-12-20T07:01:37;3.17;;;1.80;;
19167;SDS011;9716;53.114;18.040;2023-12-20T07:04:06;4.20;;;2.00;;
19167;SDS011;9716;53.114;18.040;2023-12-20T07:06:34;3.57;;;1.80;;
19167;SDS011;9716;53.114;18.040;2023-12-20T07:09:04;2.70;;;1.77;;
19167;SDS011;9716;53.114;18.040;2023-12-20T07:11:33;2.83;;;2.10;;
19167;SDS011;9716;53.114;18.040;2023-12-20T07:14:01;2.57;;;1.80;;
19167;SDS011;9716;53.114;18.040;2023-12-20T07:16:30;4.20;;;2.13;;
19167;SDS011;9716;53.114;18.040;2023-12-20T07:18:58;2.70;;;1.80;;
19167;SDS011;9716;53.114;18.040;2023-12-20T07:21:27;2.97;;;1.90;;
19167;SDS011;9716;53.114;18.040;2023-12-20T07:23:55;2.57;;;1.90;;
19167;SDS011;9716;53.114;18.040;2023-12-20T07:26:25;3.40;;;2.17;;
19167;SDS011;9716;53.114;18.040;2023-12-20T07:28:53;5.47;;;2.20;;
19167;SDS011;9716;53.114;18.040;2023-12-20T07:31:25;2.93;;;1.97;;
19167;SDS011;9716;53.114;18.040;2023-12-20T07:33:54;3.70;;;1.97;;
19167;SDS011;9716;53.114;18.040;2023-12-20T07:36:22;4.60;;;2.00;;
19167;SDS011;9716;53.114;18.040;2023-12-20T07:38:51;4.70;;;1.73;;
19167;SDS011;9716;53.114;18.040;2023-12-20T07:41:19;2.27;;;1.50;;
19167;SDS011;9716;53.114;18.040;2023-12-20T07:43:50;5.77;;;2.30;;
19167;SDS011;9716;53.114;18.040;2023-12-20T07:46:20;3.30;;;1.97;;
19167;SDS011;9716;53.114;18.040;2023-12-20T07:48:50;3.67;;;1.97;;
19167;SDS011;9716;53.114;18.040;2023-12-20T07:51:19;4.30;;;2.10;;
19167;SDS011;9716;53.114;18.040;2023-12-20T07:53:47;3.13;;;2.00;;
19167;SDS011;9716;53.114;18.040;2023-12-20T07:56:19;5.13;;;2.10;;
19167;SDS011;9716;53.114;18.040;2023-12-20T07:58:47;4.37;;;1.93;;
19167;SDS011;9716;53.114;18.040;2023-12-20T08:01:20;2.33;;;1.90;;
19167;SDS011;9716;53.114;18.040;2023-12-20T08:03:49;3.40;;;1.77;;
19167;SDS011;9716;53.114;18.040;2023-12-20T08:06:19;4.00;;;1.80;;
19167;SDS011;9716;53.114;18.040;2023-12-20T08:08:47;2.73;;;1.83;;
19167;SDS011;9716;53.114;18.040;2023-12-20T08:11:28;3.63;;;2.17;;
19167;SDS011;9716;53.114;18.040;2023-12-20T08:13:58;3.27;;;2.13;;
19167;SDS011;9716;53.114;18.040;2023-12-20T08:16:27;2.07;;;1.50;;
19167;SDS011;9716;53.114;18.040;2023-12-20T08:18:56;6.23;;;2.50;;
19167;SDS011;9716;53.114;18.040;2023-12-20T08:21:25;6.83;;;2.00;;
19167;SDS011;9716;53.114;18.040;2023-12-20T08:23:53;3.23;;;1.87;;
19167;SDS011;9716;53.114;18.040;2023-12-20T08:26:22;5.63;;;1.90;;
19167;SDS011;9716;53.114;18.040;2023-12-20T08:28:51;2.70;;;1.80;;
19167;SDS011;9716;53.114;18.040;2023-12-20T08:31:24;3.47;;;1.90;;
19167;SDS011;9716;53.114;18.040;2023-12-20T08:33:53;3.57;;;1.70;;
19167;SDS011;9716;53.114;18.040;2023-12-20T08:36:25;4.63;;;2.10;;
19167;SDS011;9716;53.114;18.040;2023-12-20T08:38:55;2.03;;;1.67;;
19167;SDS011;9716;53.114;18.040;2023-12-20T08:41:26;5.57;;;2.00;;
19167;SDS011;9716;53.114;18.040;2023-12-20T08:43:54;3.60;;;1.90;;
19167;SDS011;9716;53.114;18.040;2023-12-20T08:46:24;4.07;;;2.03;;
19167;SDS011;9716;53.114;18.040;2023-12-20T08:48:53;3.23;;;1.80;;
19167;SDS011;9716;53.114;18.040;2023-12-20T08:51:22;5.57;;;1.70;;
19167;SDS011;9716;53.114;18.040;2023-12-20T08:53:52;5.93;;;2.50;;
19167;SDS011;9716;53.114;18.040;2023-12-20T08:56:20;7.93;;;2.70;;
19167;SDS011;9716;53.114;18.040;2023-12-20T08:58:51;3.77;;;2.30;;
19167;SDS011;9716;53.114;18.040;2023-12-20T09:01:20;2.60;;;1.83;;
19167;SDS011;9716;53.114;18.040;2023-12-20T09:03:50;3.57;;;2.10;;
19167;SDS011;9716;53.114;18.040;2023-12-20T09:06:18;3.33;;;1.87;;
19167;SDS011;9716;53.114;18.040;2023-12-20T09:08:47;9.00;;;2.93;;
19167;SDS011;9716;53.114;18.040;2023-12-20T09:11:15;3.17;;;2.30;;
19167;SDS011;9716;53.114;18.040;2023-12-20T09:13:44;5.80;;;2.20;;
19167;SDS011;9716;53.114;18.040;2023-12-20T09:16:13;3.37;;;2.20;;
19167;SDS011;9716;53.114;18.040;2023-12-20T09:18:42;3.17;;;1.93;;
19167;SDS011;9716;53.114;18.040;2023-12-20T09:21:12;5.57;;;2.30;;
19167;SDS011;9716;53.114;18.040;2023-12-20T09:23:41;4.73;;;2.03;;
19167;SDS011;9716;53.114;18.040;2023-12-20T09:26:12;5.40;;;2.60;;
19167;SDS011;9716;53.114;18.040;2023-12-20T09:28:41;8.57;;;2.23;;
19167;SDS011;9716;53.114;18.040;2023-12-20T09:31:09;6.70;;;2.50;;
19167;SDS011;9716;53.114;18.040;2023-12-20T09:33:38;6.27;;;2.30;;
19167;SDS011;9716;53.114;18.040;2023-12-20T09:36:07;6.30;;;2.43;;
19167;SDS011;9716;53.114;18.040;2023-12-20T09:38:36;4.73;;;2.20;;
19167;SDS011;9716;53.114;18.040;2023-12-20T09:41:05;6.87;;;2.27;;
19167;SDS011;9716;53.114;18.040;2023-12-20T09:43:34;5.67;;;2.80;;
19167;SDS011;9716;53.114;18.040;2023-12-20T09:46:05;5.93;;;2.30;;
19167;SDS011;9716;53.114;18.040;2023-12-20T09:48:35;5.33;;;2.50;;
19167;SDS011;9716;53.114;18.040;2023-12-20T09:51:05;6.40;;;2.37;;
19167;SDS011;9716;53.114;18.040;2023-12-20T09:53:38;3.20;;;1.83;;
19167;SDS011;9716;53.114;18.040;2023-12-20T09:56:08;3.63;;;1.90;;
19167;SDS011;9716;53.114;18.040;2023-12-20T09:58:36;4.13;;;2.03;;
19167;SDS011;9716;53.114;18.040;2023-12-20T10:01:06;3.03;;;1.70;;
19167;SDS011;9716;53.114;18.040;2023-12-20T10:03:35;5.13;;;2.80;;
19167;SDS011;9716;53.114;18.040;2023-12-20T10:06:08;3.67;;;1.90;;
19167;SDS011;9716;53.114;18.040;2023-12-20T10:08:38;13.20;;;3.27;;
19167;SDS011;9716;53.114;18.040;2023-12-20T10:11:07;3.53;;;2.37;;
19167;SDS011;9716;53.114;18.040;2023-12-20T10:13:38;5.63;;;2.30;;
19167;SDS011;9716;53.114;18.040;2023-12-20T10:16:08;5.13;;;2.53;;
19167;SDS011;9716;53.114;18.040;2023-12-20T10:18:36;8.93;;;2.97;;
19167;SDS011;9716;53.114;18.040;2023-12-20T10:21:06;7.37;;;2.80;;
19167;SDS011;9716;53.114;18.040;2023-12-20T10:23:38;12.17;;;2.70;;
19167;SDS011;9716;53.114;18.040;2023-12-20T10:26:08;5.47;;;2.30;;
19167;SDS011;9716;53.114;18.040;2023-12-20T10:28:38;10.30;;;3.40;;
19167;SDS011;9716;53.114;18.040;2023-12-20T10:31:07;5.97;;;3.33;;
19167;SDS011;9716;53.114;18.040;2023-12-20T10:33:36;8.70;;;2.37;;
19167;SDS011;9716;53.114;18.040;2023-12-20T10:36:05;4.93;;;2.73;;
19167;SDS011;9716;53.114;18.040;2023-12-20T10:38:34;4.43;;;2.03;;
19167;SDS011;9716;53.114;18.040;2023-12-20T10:41:07;9.00;;;2.60;;
19167;SDS011;9716;53.114;18.040;2023-12-20T10:43:37;3.27;;;2.20;;
19167;SDS011;9716;53.114;18.040;2023-12-20T10:46:08;3.47;;;2.30;;
19167;SDS011;9716;53.114;18.040;2023-12-20T10:48:37;7.17;;;2.10;;
19167;SDS011;9716;53.114;18.040;2023-12-20T10:51:08;6.27;;;2.10;;
19167;SDS011;9716;53.114;18.040;2023-12-20T10:53:37;5.33;;;2.83;;
19167;SDS011;9716;53.114;18.040;2023-12-20T10:56:09;6.37;;;2.13;;
19167;SDS011;9716;53.114;18.040;2023-12-20T10:58:41;8.13;;;2.20;;
19167;SDS011;9716;53.114;18.040;2023-12-20T11:01:10;12.93;;;2.47;;
19167;SDS011;9716;53.114;18.040;2023-12-20T11:03:43;3.77;;;2.00;;
19167;SDS011;9716;53.114;18.040;2023-12-20T11:06:17;7.47;;;2.23;;
19167;SDS011;9716;53.114;18.040;2023-12-20T11:08:53;6.77;;;2.10;;
19167;SDS011;9716;53.114;18.040;2023-12-20T11:11:39;5.43;;;1.77;;
19167;SDS011;9716;53.114;18.040;2023-12-20T11:14:19;4.20;;;1.80;;
19167;SDS011;9716;53.114;18.040;2023-12-20T11:17:00;5.50;;;1.90;;
19167;SDS011;9716;53.114;18.040;2023-12-20T11:19:35;2.80;;;1.83;;
19167;SDS011;9716;53.114;18.040;2023-12-20T11:22:04;5.03;;;2.20;;
19167;SDS011;9716;53.114;18.040;2023-12-20T11:24:34;4.27;;;1.53;;
19167;SDS011;9716;53.114;18.040;2023-12-20T11:27:06;8.33;;;1.80;;
19167;SDS011;9716;53.114;18.040;2023-12-20T11:29:34;3.20;;;1.77;;
19167;SDS011;9716;53.114;18.040;2023-12-20T11:32:27;5.97;;;1.77;;
19167;SDS011;9716;53.114;18.040;2023-12-20T11:34:58;4.57;;;1.60;;
19167;SDS011;9716;53.114;18.040;2023-12-20T11:37:29;2.03;;;1.83;;
19167;SDS011;9716;53.114;18.040;2023-12-20T11:40:00;10.77;;;3.37;;
19167;SDS011;9716;53.114;18.040;2023-12-20T11:42:33;7.97;;;4.07;;
19167;SDS011;9716;53.114;18.040;2023-12-20T11:45:09;7.50;;;3.60;;
19167;SDS011;9716;53.114;18.040;2023-12-20T11:47:42;5.97;;;3.43;;
19167;SDS011;9716;53.114;18.040;2023-12-20T11:50:14;5.53;;;2.80;;
19167;SDS011;9716;53.114;18.040;2023-12-20T11:52:42;12.37;;;2.80;;
19167;SDS011;9716;53.114;18.040;2023-12-20T11:55:11;13.73;;;2.90;;
19167;SDS011;9716;53.114;18.040;2023-12-20T11:57:43;7.40;;;3.03;;
19167;SDS011;9716;53.114;18.040;2023-12-20T12:00:13;6.53;;;2.57;;
19167;SDS011;9716;53.114;18.040;2023-12-20T12:02:43;8.63;;;3.13;;
19167;SDS011;9716;53.114;18.040;2023-12-20T12:05:22;11.23;;;3.33;;
19167;SDS011;9716;53.114;18.040;2023-12-20T12:07:51;8.17;;;3.10;;
19167;SDS011;9716;53.114;18.040;2023-12-20T12:10:19;10.00;;;3.10;;
19167;SDS011;9716;53.114;18.040;2023-12-20T12:12:49;10.87;;;2.67;;
19167;SDS011;9716;53.114;18.040;2023-12-20T12:15:19;9.77;;;2.80;;
19167;SDS011;9716;53.114;18.040;2023-12-20T12:17:52;9.60;;;2.50;;
19167;SDS011;9716;53.114;18.040;2023-12-20T12:20:22;4.83;;;1.97;;
19167;SDS011;9716;53.114;18.040;2023-12-20T12:22:57;8.13;;;2.63;;
19167;SDS011;9716;53.114;18.040;2023-12-20T12:25:26;12.77;;;2.97;;
19167;SDS011;9716;53.114;18.040;2023-12-20T12:27:58;8.53;;;2.60;;
19167;SDS011;9716;53.114;18.040;2023-12-20T12:30:27;5.37;;;2.37;;
19167;SDS011;9716;53.114;18.040;2023-12-20T12:33:05;7.47;;;3.20;;
19167;SDS011;9716;53.114;18.040;2023-12-20T12:35:34;10.97;;;2.40;;
19167;SDS011;9716;53.114;18.040;2023-12-20T12:38:03;6.73;;;2.37;;
19167;SDS011;9716;53.114;18.040;2023-12-20T12:40:34;6.43;;;2.33;;
19167;SDS011;9716;53.114;18.040;2023-12-20T12:43:05;7.63;;;2.43;;
19167;SDS011;9716;53.114;18.040;2023-12-20T12:45:33;12.07;;;2.67;;
19167;SDS011;9716;53.114;18.040;2023-12-20T12:48:03;4.60;;;2.20;;
19167;SDS011;9716;53.114;18.040;2023-12-20T12:50:32;8.53;;;2.23;;
19167;SDS011;9716;53.114;18.040;2023-12-20T12:53:01;11.80;;;2.30;;
19167;SDS011;9716;53.114;18.040;2023-12-20T12:55:30;6.37;;;2.53;;
19167;SDS011;9716;53.114;18.040;2023-12-20T12:57:59;5.63;;;2.47;;
19167;SDS011;9716;53.114;18.040;2023-12-20T13:00:29;9.83;;;2.40;;
19167;SDS011;9716;53.114;18.040;2023-12-20T13:02:57;12.47;;;2.83;;
19167;SDS011;9716;53.114;18.040;2023-12-20T13:05:26;15.67;;;4.67;;
19167;SDS011;9716;53.114;18.040;2023-12-20T13:08:04;13.50;;;5.83;;
19167;SDS011;9716;53.114;18.040;2023-12-20T13:10:33;7.53;;;4.80;;
19167;SDS011;9716;53.114;18.040;2023-12-20T13:13:02;11.17;;;4.73;;
19167;SDS011;9716;53.114;18.040;2023-12-20T13:15:33;12.03;;;4.20;;
19167;SDS011;9716;53.114;18.040;2023-12-20T13:18:01;10.70;;;3.90;;
19167;SDS011;9716;53.114;18.040;2023-12-20T13:20:31;7.33;;;3.10;;
19167;SDS011;9716;53.114;18.040;2023-12-20T13:23:00;3.87;;;2.33;;
19167;SDS011;9716;53.114;18.040;2023-12-20T13:25:30;6.87;;;3.20;;
19167;SDS011;9716;53.114;18.040;2023-12-20T13:28:01;6.97;;;2.50;;
19167;SDS011;9716;53.114;18.040;2023-12-20T13:30:35;6.80;;;2.43;;
19167;SDS011;9716;53.114;18.040;2023-12-20T13:33:04;4.80;;;2.13;;
19167;SDS011;9716;53.114;18.040;2023-12-20T13:35:33;8.27;;;2.40;;
19167;SDS011;9716;53.114;18.040;2023-12-20T13:38:02;3.80;;;1.90;;
19167;SDS011;9716;53.114;18.040;2023-12-20T13:40:31;3.70;;;2.00;;
19167;SDS011;9716;53.114;18.040;2023-12-20T13:43:01;6.47;;;2.03;;
19167;SDS011;9716;53.114;18.040;2023-12-20T13:45:30;3.33;;;1.93;;
19167;SDS011;9716;53.114;18.040;2023-12-20T13:48:00;4.00;;;2.20;;
19167;SDS011;9716;53.114;18.040;2023-12-20T13:50:29;3.10;;;1.93;;
19167;SDS011;9716;53.114;18.040;2023-12-20T13:52:58;2.97;;;1.67;;
19167;SDS011;9716;53.114;18.040;2023-12-20T13:55:27;6.30;;;2.07;;
19167;SDS011;9716;53.114;18.040;2023-12-20T13:57:56;6.07;;;1.80;;
19167;SDS011;9716;53.114;18.040;2023-12-20T14:00:25;3.57;;;1.80;;
19167;SDS011;9716;53.114;18.040;2023-12-20T14:02:53;2.77;;;1.70;;
19167;SDS011;9716;53.114;18.040;2023-12-20T14:05:24;4.47;;;2.00;;
19167;SDS011;9716;53.114;18.040;2023-12-20T14:07:55;3.93;;;2.00;;
19167;SDS011;9716;53.114;18.040;2023-12-20T14:10:25;3.10;;;1.73;;
19167;SDS011;9716;53.114;18.040;2023-12-20T14:13:06;10.87;;;2.50;;
19167;SDS011;9716;53.114;18.040;2023-12-20T14:15:35;5.33;;;2.17;;
19167;SDS011;9716;53.114;18.040;2023-12-20T14:18:04;4.10;;;2.37;;
19167;SDS011;9716;53.114;18.040;2023-12-20T14:20:36;6.10;;;1.90;;
19167;SDS011;9716;53.114;18.040;2023-12-20T14:23:06;3.23;;;2.10;;
19167;SDS011;9716;53.114;18.040;2023-12-20T14:25:36;9.13;;;2.33;;
19167;SDS011;9716;53.114;18.040;2023-12-20T14:28:17;5.80;;;2.30;;
19167;SDS011;9716;53.114;18.040;2023-12-20T14:30:46;9.40;;;2.40;;
19167;SDS011;9716;53.114;18.040;2023-12-20T14:33:16;5.90;;;1.90;;
19167;SDS011;9716;53.114;18.040;2023-12-20T14:35:48;4.10;;;2.53;;
19167;SDS011;9716;53.114;18.040;2023-12-20T14:38:17;8.23;;;1.93;;
19167;SDS011;9716;53.114;18.040;2023-12-20T14:40:46;6.83;;;2.23;;
19167;SDS011;9716;53.114;18.040;2023-12-20T14:43:14;3.90;;;1.70;;
19167;SDS011;9716;53.114;18.040;2023-12-20T14:45:43;4.07;;;1.90;;
19167;SDS011;9716;53.114;18.040;2023-12-20T14:48:12;3.40;;;2.23;;
19167;SDS011;9716;53.114;18.040;2023-12-20T14:50:40;5.77;;;3.17;;
19167;SDS011;9716;53.114;18.040;2023-12-20T14:53:10;5.10;;;2.40;;
19167;SDS011;9716;53.114;18.040;2023-12-20T14:55:39;4.70;;;2.37;;
19167;SDS011;9716;53.114;18.040;2023-12-20T14:58:08;6.30;;;2.23;;
19167;SDS011;9716;53.114;18.040;2023-12-20T15:00:36;3.47;;;2.53;;
19167;SDS011;9716;53.114;18.040;2023-12-20T15:03:05;11.40;;;2.53;;
19167;SDS011;9716;53.114;18.040;2023-12-20T15:05:33;8.70;;;3.20;;